sensor_id;sensor_type;location;lat;lon;timestamp;P1;durP1;ratioP1;P2;durP2;ratioP2
40635;SDS011;26642;55.766;37.828;2024-01-25T00:01:43;10.50;;;6.63;;
40635;SDS011;26642;55.766;37.828;2024-01-25T00:04:10;11.80;;;6.45;;
40635;SDS011;26642;55.766;37.828;2024-01-25T00:06:36;12.32;;;6.30;;
40635;SDS011;26642;55.766;37.828;2024-01-25T00:09:02;8.10;;;6.40;;
40635;SDS011;26642;55.766;37.828;2024-01-25T00:11:29;11.48;;;6.47;;
40635;SDS011;26642;55.766;37.828;2024-01-25T00:13:57;10.52;;;6.20;;
40635;SDS011;26642;55.766;37.828;2024-01-25T00:16:23;11.13;;;6.05;;
40635;SDS011;26642;55.766;37.828;2024-01-25T00:18:49;10.90;;;6.78;;
40635;SDS011;26642;55.766;37.828;2024-01-25T00:21:16;11.20;;;6.75;;
40635;SDS011;26642;55.766;37.828;2024-01-25T00:23:42;10.50;;;6.63;;
40635;SDS011;26642;55.766;37.828;2024-01-25T00:26:08;11.52;;;6.78;;
40635;SDS011;26642;55.766;37.828;2024-01-25T00:28:34;11.48;;;6.90;;
40635;SDS011;26642;55.766;37.828;2024-01-25T00:31:00;10.88;;;6.53;;
40635;SDS011;26642;55.766;37.828;2024-01-25T00:33:26;10.40;;;6.45;;
40635;SDS011;26642;55.766;37.828;2024-01-25T00:35:52;11.13;;;7.13;;
40635;SDS011;26642;55.766;37.828;2024-01-25T00:38:18;10.85;;;6.70;;
40635;SDS011;26642;55.766;37.828;2024-01-25T00:40:45;9.68;;;6.10;;
40635;SDS011;26642;55.766;37.828;2024-01-25T00:43:11;9.90;;;6.35;;
40635;SDS011;26642;55.766;37.828;2024-01-25T00:45:37;10.05;;;6.60;;
40635;SDS011;26642;55.766;37.828;2024-01-25T00:48:03;9.75;;;6.20;;
40635;SDS011;26642;55.766;37.828;2024-01-25T00:50:30;9.43;;;6.10;;
40635;SDS011;26642;55.766;37.828;2024-01-25T00:52:56;10.13;;;6.50;;
40635;SDS011;26642;55.766;37.828;2024-01-25T00:55:22;10.07;;;5.78;;
40635;SDS011;26642;55.766;37.828;2024-01-25T00:57:49;8.18;;;5.32;;
40635;SDS011;26642;55.766;37.828;2024-01-25T01:00:17;10.75;;;5.88;;
40635;SDS011;26642;55.766;37.828;2024-01-25T01:02:43;9.48;;;6.38;;
40635;SDS011;26642;55.766;37.828;2024-01-25T01:05:10;10.98;;;5.90;;
40635;SDS011;26642;55.766;37.828;2024-01-25T01:07:38;10.07;;;6.25;;
40635;SDS011;26642;55.766;37.828;2024-01-25T01:10:08;10.13;;;6.00;;
40635;SDS011;26642;55.766;37.828;2024-01-25T01:12:34;10.35;;;6.25;;
40635;SDS011;26642;55.766;37.828;2024-01-25T01:15:01;8.98;;;5.63;;
40635;SDS011;26642;55.766;37.828;2024-01-25T01:17:29;9.13;;;5.70;;
40635;SDS011;26642;55.766;37.828;2024-01-25T01:19:55;7.55;;;5.47;;
40635;SDS011;26642;55.766;37.828;2024-01-25T01:22:21;9.05;;;5.65;;
40635;SDS011;26642;55.766;37.828;2024-01-25T01:24:47;9.13;;;5.55;;
40635;SDS011;26642;55.766;37.828;2024-01-25T01:27:13;9.23;;;5.72;;
40635;SDS011;26642;55.766;37.828;2024-01-25T01:29:39;7.50;;;5.53;;
40635;SDS011;26642;55.766;37.828;2024-01-25T01:32:06;10.52;;;6.15;;
40635;SDS011;26642;55.766;37.828;2024-01-25T01:34:32;8.60;;;5.68;;
40635;SDS011;26642;55.766;37.828;2024-01-25T01:36:58;9.65;;;5.65;;
40635;SDS011;26642;55.766;37.828;2024-01-25T01:39:24;8.13;;;5.60;;
40635;SDS011;26642;55.766;37.828;2024-01-25T01:41:50;9.55;;;5.60;;
40635;SDS011;26642;55.766;37.828;2024-01-25T01:44:16;8.05;;;5.10;;
40635;SDS011;26642;55.766;37.828;2024-01-25T01:46:42;7.78;;;5.28;;
40635;SDS011;26642;55.766;37.828;2024-01-25T01:49:12;8.13;;;5.80;;
40635;SDS011;26642;55.766;37.828;2024-01-25T01:51:42;7.72;;;5.25;;
40635;SDS011;26642;55.766;37.828;2024-01-25T01:54:09;10.45;;;5.45;;
40635;SDS011;26642;55.766;37.828;2024-01-25T01:56:35;7.80;;;5.60;;
40635;SDS011;26642;55.766;37.828;2024-01-25T01:59:02;10.60;;;5.78;;
40635;SDS011;26642;55.766;37.828;2024-01-25T02:01:30;8.82;;;5.25;;
40635;SDS011;26642;55.766;37.828;2024-01-25T02:03:57;9.35;;;5.10;;
40635;SDS011;26642;55.766;37.828;2024-01-25T02:06:23;9.43;;;5.63;;
40635;SDS011;26642;55.766;37.828;2024-01-25T02:08:49;7.35;;;5.55;;
40635;SDS011;26642;55.766;37.828;2024-01-25T02:11:18;8.30;;;5.15;;
40635;SDS011;26642;55.766;37.828;2024-01-25T02:13:45;9.18;;;5.68;;
40635;SDS011;26642;55.766;37.828;2024-01-25T02:16:12;10.18;;;5.53;;
40635;SDS011;26642;55.766;37.828;2024-01-25T02:18:40;8.00;;;5.03;;
40635;SDS011;26642;55.766;37.828;2024-01-25T02:21:07;7.95;;;5.28;;
40635;SDS011;26642;55.766;37.828;2024-01-25T02:23:33;9.15;;;4.95;;
40635;SDS011;26642;55.766;37.828;2024-01-25T02:25:59;9.18;;;5.82;;
40635;SDS011;26642;55.766;37.828;2024-01-25T02:28:25;8.20;;;5.25;;
40635;SDS011;26642;55.766;37.828;2024-01-25T02:30:51;8.25;;;5.22;;
40635;SDS011;26642;55.766;37.828;2024-01-25T02:33:17;8.13;;;5.90;;
40635;SDS011;26642;55.766;37.828;2024-01-25T02:35:43;8.70;;;5.85;;
40635;SDS011;26642;55.766;37.828;2024-01-25T02:38:09;9.07;;;5.38;;
40635;SDS011;26642;55.766;37.828;2024-01-25T02:40:35;7.88;;;5.50;;
40635;SDS011;26642;55.766;37.828;2024-01-25T02:43:01;8.23;;;5.60;;
40635;SDS011;26642;55.766;37.828;2024-01-25T02:45:27;8.43;;;5.10;;
40635;SDS011;26642;55.766;37.828;2024-01-25T02:47:53;9.05;;;5.57;;
40635;SDS011;26642;55.766;37.828;2024-01-25T02:50:19;8.18;;;5.30;;
40635;SDS011;26642;55.766;37.828;2024-01-25T02:52:45;7.50;;;4.75;;
40635;SDS011;26642;55.766;37.828;2024-01-25T02:55:12;7.82;;;5.18;;
40635;SDS011;26642;55.766;37.828;2024-01-25T02:57:38;8.77;;;5.00;;
40635;SDS011;26642;55.766;37.828;2024-01-25T03:00:04;7.38;;;4.85;;
40635;SDS011;26642;55.766;37.828;2024-01-25T03:02:30;5.85;;;4.72;;
40635;SDS011;26642;55.766;37.828;2024-01-25T03:04:56;9.85;;;4.97;;
40635;SDS011;26642;55.766;37.828;2024-01-25T03:07:23;8.98;;;5.40;;
40635;SDS011;26642;55.766;37.828;2024-01-25T03:09:49;7.32;;;5.38;;
40635;SDS011;26642;55.766;37.828;2024-01-25T03:12:15;6.82;;;4.72;;
40635;SDS011;26642;55.766;37.828;2024-01-25T03:14:41;8.73;;;5.40;;
40635;SDS011;26642;55.766;37.828;2024-01-25T03:17:07;6.13;;;4.63;;
40635;SDS011;26642;55.766;37.828;2024-01-25T03:19:32;6.53;;;5.00;;
40635;SDS011;26642;55.766;37.828;2024-01-25T03:21:59;9.32;;;5.15;;
40635;SDS011;26642;55.766;37.828;2024-01-25T03:24:27;7.30;;;4.70;;
40635;SDS011;26642;55.766;37.828;2024-01-25T03:26:53;8.38;;;5.25;;
40635;SDS011;26642;55.766;37.828;2024-01-25T03:29:19;7.40;;;4.90;;
40635;SDS011;26642;55.766;37.828;2024-01-25T03:31:45;8.85;;;4.47;;
40635;SDS011;26642;55.766;37.828;2024-01-25T03:34:11;7.35;;;5.05;;
40635;SDS011;26642;55.766;37.828;2024-01-25T03:36:37;6.85;;;4.80;;
40635;SDS011;26642;55.766;37.828;2024-01-25T03:39:05;6.43;;;4.43;;
40635;SDS011;26642;55.766;37.828;2024-01-25T03:41:32;6.90;;;4.53;;
40635;SDS011;26642;55.766;37.828;2024-01-25T03:43:58;6.93;;;4.60;;
40635;SDS011;26642;55.766;37.828;2024-01-25T03:46:24;8.13;;;5.03;;
40635;SDS011;26642;55.766;37.828;2024-01-25T03:48:50;6.30;;;4.90;;
40635;SDS011;26642;55.766;37.828;2024-01-25T03:51:16;7.80;;;4.80;;
40635;SDS011;26642;55.766;37.828;2024-01-25T03:53:42;6.40;;;4.57;;
40635;SDS011;26642;55.766;37.828;2024-01-25T03:56:12;8.82;;;4.55;;
40635;SDS011;26642;55.766;37.828;2024-01-25T03:58:48;6.80;;;4.45;;
40635;SDS011;26642;55.766;37.828;2024-01-25T04:01:14;6.57;;;4.53;;
40635;SDS011;26642;55.766;37.828;2024-01-25T04:03:40;5.75;;;4.38;;
40635;SDS011;26642;55.766;37.828;2024-01-25T04:06:06;6.78;;;4.35;;
40635;SDS011;26642;55.766;37.828;2024-01-25T04:08:32;7.18;;;4.40;;
40635;SDS011;26642;55.766;37.828;2024-01-25T04:10:58;6.47;;;4.32;;
40635;SDS011;26642;55.766;37.828;2024-01-25T04:13:24;6.75;;;4.00;;
40635;SDS011;26642;55.766;37.828;2024-01-25T04:15:50;8.00;;;4.85;;
40635;SDS011;26642;55.766;37.828;2024-01-25T04:18:16;6.00;;;4.03;;
40635;SDS011;26642;55.766;37.828;2024-01-25T04:20:43;5.05;;;4.22;;
40635;SDS011;26642;55.766;37.828;2024-01-25T04:23:09;6.13;;;4.28;;
40635;SDS011;26642;55.766;37.828;2024-01-25T04:25:35;6.20;;;4.32;;
40635;SDS011;26642;55.766;37.828;2024-01-25T04:28:01;6.28;;;4.82;;
40635;SDS011;26642;55.766;37.828;2024-01-25T04:30:27;5.13;;;3.88;;
40635;SDS011;26642;55.766;37.828;2024-01-25T04:32:54;7.13;;;4.72;;
40635;SDS011;26642;55.766;37.828;2024-01-25T04:35:20;7.10;;;4.65;;
40635;SDS011;26642;55.766;37.828;2024-01-25T04:37:46;6.85;;;4.80;;
40635;SDS011;26642;55.766;37.828;2024-01-25T04:40:12;6.50;;;4.55;;
40635;SDS011;26642;55.766;37.828;2024-01-25T04:42:38;6.97;;;4.72;;
40635;SDS011;26642;55.766;37.828;2024-01-25T04:45:05;6.22;;;4.65;;
40635;SDS011;26642;55.766;37.828;2024-01-25T04:47:31;7.57;;;4.70;;
40635;SDS011;26642;55.766;37.828;2024-01-25T04:49:57;6.70;;;4.70;;
40635;SDS011;26642;55.766;37.828;2024-01-25T04:52:23;6.45;;;4.68;;
40635;SDS011;26642;55.766;37.828;2024-01-25T04:54:50;6.38;;;4.90;;
40635;SDS011;26642;55.766;37.828;2024-01-25T04:57:16;7.10;;;4.30;;
40635;SDS011;26642;55.766;37.828;2024-01-25T04:59:42;7.68;;;4.40;;
40635;SDS011;26642;55.766;37.828;2024-01-25T05:02:08;8.20;;;5.00;;
40635;SDS011;26642;55.766;37.828;2024-01-25T05:04:34;7.63;;;5.22;;
40635;SDS011;26642;55.766;37.828;2024-01-25T05:07:00;6.50;;;4.40;;
40635;SDS011;26642;55.766;37.828;2024-01-25T05:09:27;7.82;;;4.85;;
40635;SDS011;26642;55.766;37.828;2024-01-25T05:11:53;5.18;;;4.50;;
40635;SDS011;26642;55.766;37.828;2024-01-25T05:14:23;8.15;;;4.68;;
40635;SDS011;26642;55.766;37.828;2024-01-25T05:16:50;8.20;;;5.20;;
40635;SDS011;26642;55.766;37.828;2024-01-25T05:19:16;7.13;;;5.03;;
40635;SDS011;26642;55.766;37.828;2024-01-25T05:21:42;9.20;;;5.20;;
40635;SDS011;26642;55.766;37.828;2024-01-25T05:24:08;8.10;;;5.50;;
40635;SDS011;26642;55.766;37.828;2024-01-25T05:26:35;8.55;;;5.18;;
40635;SDS011;26642;55.766;37.828;2024-01-25T05:29:01;9.43;;;5.20;;
40635;SDS011;26642;55.766;37.828;2024-01-25T05:31:27;9.02;;;5.32;;
40635;SDS011;26642;55.766;37.828;2024-01-25T05:33:53;9.00;;;5.35;;
40635;SDS011;26642;55.766;37.828;2024-01-25T05:36:19;9.57;;;5.10;;
40635;SDS011;26642;55.766;37.828;2024-01-25T05:38:45;8.57;;;5.10;;
40635;SDS011;26642;55.766;37.828;2024-01-25T05:41:11;8.98;;;5.88;;
40635;SDS011;26642;55.766;37.828;2024-01-25T05:43:37;9.57;;;5.35;;
40635;SDS011;26642;55.766;37.828;2024-01-25T05:46:03;7.18;;;5.13;;
40635;SDS011;26642;55.766;37.828;2024-01-25T05:48:29;6.05;;;4.63;;
40635;SDS011;26642;55.766;37.828;2024-01-25T05:50:55;8.90;;;5.78;;
40635;SDS011;26642;55.766;37.828;2024-01-25T05:53:21;7.78;;;5.45;;
40635;SDS011;26642;55.766;37.828;2024-01-25T05:55:47;7.88;;;5.63;;
40635;SDS011;26642;55.766;37.828;2024-01-25T05:58:13;7.47;;;4.97;;
40635;SDS011;26642;55.766;37.828;2024-01-25T06:00:39;7.68;;;5.53;;
40635;SDS011;26642;55.766;37.828;2024-01-25T06:03:05;9.18;;;6.18;;
40635;SDS011;26642;55.766;37.828;2024-01-25T06:05:31;8.18;;;5.40;;
40635;SDS011;26642;55.766;37.828;2024-01-25T06:07:57;9.82;;;5.95;;
40635;SDS011;26642;55.766;37.828;2024-01-25T06:10:23;7.72;;;5.60;;
40635;SDS011;26642;55.766;37.828;2024-01-25T06:12:49;10.18;;;5.93;;
40635;SDS011;26642;55.766;37.828;2024-01-25T06:15:15;7.45;;;5.65;;
40635;SDS011;26642;55.766;37.828;2024-01-25T06:17:41;7.07;;;5.18;;
40635;SDS011;26642;55.766;37.828;2024-01-25T06:20:08;6.93;;;5.25;;
40635;SDS011;26642;55.766;37.828;2024-01-25T06:22:35;10.35;;;6.03;;
40635;SDS011;26642;55.766;37.828;2024-01-25T06:25:01;7.43;;;5.55;;
40635;SDS011;26642;55.766;37.828;2024-01-25T06:27:29;7.18;;;5.60;;
40635;SDS011;26642;55.766;37.828;2024-01-25T06:29:55;8.02;;;5.93;;
40635;SDS011;26642;55.766;37.828;2024-01-25T06:32:21;8.07;;;5.70;;
40635;SDS011;26642;55.766;37.828;2024-01-25T06:34:47;8.20;;;5.63;;
40635;SDS011;26642;55.766;37.828;2024-01-25T06:37:13;8.52;;;5.97;;
40635;SDS011;26642;55.766;37.828;2024-01-25T06:39:41;8.55;;;5.85;;
40635;SDS011;26642;55.766;37.828;2024-01-25T06:42:07;9.60;;;6.05;;
40635;SDS011;26642;55.766;37.828;2024-01-25T06:44:33;7.13;;;5.30;;
40635;SDS011;26642;55.766;37.828;2024-01-25T06:46:59;8.52;;;5.38;;
40635;SDS011;26642;55.766;37.828;2024-01-25T06:49:25;7.20;;;5.47;;
40635;SDS011;26642;55.766;37.828;2024-01-25T06:51:51;9.60;;;5.88;;
40635;SDS011;26642;55.766;37.828;2024-01-25T06:54:17;8.55;;;5.28;;
40635;SDS011;26642;55.766;37.828;2024-01-25T06:56:43;8.85;;;5.57;;
40635;SDS011;26642;55.766;37.828;2024-01-25T06:59:09;9.55;;;6.18;;
40635;SDS011;26642;55.766;37.828;2024-01-25T07:01:35;7.57;;;5.28;;
40635;SDS011;26642;55.766;37.828;2024-01-25T07:04:01;7.53;;;5.22;;
40635;SDS011;26642;55.766;37.828;2024-01-25T07:06:29;9.05;;;5.13;;
40635;SDS011;26642;55.766;37.828;2024-01-25T07:08:55;7.30;;;5.43;;
40635;SDS011;26642;55.766;37.828;2024-01-25T07:11:21;8.45;;;5.82;;
40635;SDS011;26642;55.766;37.828;2024-01-25T07:13:47;8.52;;;5.32;;
40635;SDS011;26642;55.766;37.828;2024-01-25T07:16:13;8.45;;;5.53;;
40635;SDS011;26642;55.766;37.828;2024-01-25T07:18:39;8.15;;;5.38;;
40635;SDS011;26642;55.766;37.828;2024-01-25T07:21:05;7.47;;;5.53;;
40635;SDS011;26642;55.766;37.828;2024-01-25T07:23:32;7.45;;;5.40;;
40635;SDS011;26642;55.766;37.828;2024-01-25T07:25:59;7.82;;;5.68;;
40635;SDS011;26642;55.766;37.828;2024-01-25T07:28:25;7.13;;;5.07;;
40635;SDS011;26642;55.766;37.828;2024-01-25T07:30:51;7.50;;;5.68;;
40635;SDS011;26642;55.766;37.828;2024-01-25T07:33:17;6.20;;;5.00;;
40635;SDS011;26642;55.766;37.828;2024-01-25T07:35:43;8.75;;;5.70;;
40635;SDS011;26642;55.766;37.828;2024-01-25T07:38:13;7.63;;;5.18;;
40635;SDS011;26642;55.766;37.828;2024-01-25T07:40:40;9.07;;;5.78;;
40635;SDS011;26642;55.766;37.828;2024-01-25T07:43:06;8.05;;;5.57;;
40635;SDS011;26642;55.766;37.828;2024-01-25T07:45:33;8.05;;;5.43;;
40635;SDS011;26642;55.766;37.828;2024-01-25T07:47:59;8.43;;;5.60;;
40635;SDS011;26642;55.766;37.828;2024-01-25T07:50:25;8.27;;;5.68;;
40635;SDS011;26642;55.766;37.828;2024-01-25T07:52:51;10.95;;;6.47;;
40635;SDS011;26642;55.766;37.828;2024-01-25T07:55:18;9.13;;;5.07;;
40635;SDS011;26642;55.766;37.828;2024-01-25T07:57:44;8.27;;;5.78;;
40635;SDS011;26642;55.766;37.828;2024-01-25T08:00:10;7.70;;;5.30;;
40635;SDS011;26642;55.766;37.828;2024-01-25T08:02:37;8.45;;;5.90;;
40635;SDS011;26642;55.766;37.828;2024-01-25T08:05:06;8.50;;;5.57;;
40635;SDS011;26642;55.766;37.828;2024-01-25T08:07:33;7.90;;;5.53;;
40635;SDS011;26642;55.766;37.828;2024-01-25T08:09:59;7.47;;;5.30;;
40635;SDS011;26642;55.766;37.828;2024-01-25T08:12:25;7.13;;;4.78;;
40635;SDS011;26642;55.766;37.828;2024-01-25T08:14:51;6.60;;;5.20;;
40635;SDS011;26642;55.766;37.828;2024-01-25T08:17:18;8.55;;;5.60;;
40635;SDS011;26642;55.766;37.828;2024-01-25T08:19:44;6.80;;;5.07;;
40635;SDS011;26642;55.766;37.828;2024-01-25T08:22:11;8.05;;;4.90;;
40635;SDS011;26642;55.766;37.828;2024-01-25T08:24:40;7.65;;;5.13;;
40635;SDS011;26642;55.766;37.828;2024-01-25T08:27:07;8.40;;;5.40;;
40635;SDS011;26642;55.766;37.828;2024-01-25T08:29:33;6.07;;;4.50;;
40635;SDS011;26642;55.766;37.828;2024-01-25T08:31:59;7.93;;;5.03;;
40635;SDS011;26642;55.766;37.828;2024-01-25T08:34:25;7.45;;;5.15;;
40635;SDS011;26642;55.766;37.828;2024-01-25T08:36:51;7.38;;;5.05;;
40635;SDS011;26642;55.766;37.828;2024-01-25T08:39:17;7.07;;;5.15;;
40635;SDS011;26642;55.766;37.828;2024-01-25T08:41:43;6.90;;;5.25;;
40635;SDS011;26642;55.766;37.828;2024-01-25T08:44:10;7.90;;;5.28;;
40635;SDS011;26642;55.766;37.828;2024-01-25T08:46:37;8.10;;;4.93;;
40635;SDS011;26642;55.766;37.828;2024-01-25T08:49:03;6.78;;;4.85;;
40635;SDS011;26642;55.766;37.828;2024-01-25T08:51:33;7.15;;;4.88;;
40635;SDS011;26642;55.766;37.828;2024-01-25T08:54:00;7.90;;;5.35;;
40635;SDS011;26642;55.766;37.828;2024-01-25T08:56:26;7.65;;;5.55;;
40635;SDS011;26642;55.766;37.828;2024-01-25T08:58:52;7.55;;;4.80;;
40635;SDS011;26642;55.766;37.828;2024-01-25T09:01:18;6.40;;;4.80;;
40635;SDS011;26642;55.766;37.828;2024-01-25T09:03:44;7.88;;;5.32;;
40635;SDS011;26642;55.766;37.828;2024-01-25T09:06:10;6.68;;;5.07;;
40635;SDS011;26642;55.766;37.828;2024-01-25T09:08:36;7.90;;;4.88;;
40635;SDS011;26642;55.766;37.828;2024-01-25T09:11:02;6.68;;;4.95;;
40635;SDS011;26642;55.766;37.828;2024-01-25T09:13:28;7.38;;;5.35;;
40635;SDS011;26642;55.766;37.828;2024-01-25T09:15:55;6.68;;;5.30;;
40635;SDS011;26642;55.766;37.828;2024-01-25T09:18:21;8.73;;;5.22;;
40635;SDS011;26642;55.766;37.828;2024-01-25T09:20:47;5.82;;;4.45;;
40635;SDS011;26642;55.766;37.828;2024-01-25T09:23:16;7.28;;;5.38;;
40635;SDS011;26642;55.766;37.828;2024-01-25T09:25:43;6.75;;;5.05;;
40635;SDS011;26642;55.766;37.828;2024-01-25T09:28:10;9.07;;;5.32;;
40635;SDS011;26642;55.766;37.828;2024-01-25T09:30:40;6.75;;;5.00;;
40635;SDS011;26642;55.766;37.828;2024-01-25T09:33:06;6.95;;;5.30;;
40635;SDS011;26642;55.766;37.828;2024-01-25T09:35:32;6.95;;;5.05;;
40635;SDS011;26642;55.766;37.828;2024-01-25T09:37:59;7.63;;;5.15;;
40635;SDS011;26642;55.766;37.828;2024-01-25T09:40:25;8.38;;;5.22;;
40635;SDS011;26642;55.766;37.828;2024-01-25T09:42:51;9.10;;;6.05;;
40635;SDS011;26642;55.766;37.828;2024-01-25T09:45:18;7.63;;;5.60;;
40635;SDS011;26642;55.766;37.828;2024-01-25T09:47:45;7.75;;;5.68;;
40635;SDS011;26642;55.766;37.828;2024-01-25T09:50:11;9.25;;;5.40;;
40635;SDS011;26642;55.766;37.828;2024-01-25T09:52:38;12.88;;;6.25;;
40635;SDS011;26642;55.766;37.828;2024-01-25T09:55:08;7.55;;;5.40;;
40635;SDS011;26642;55.766;37.828;2024-01-25T09:57:44;7.00;;;4.85;;
40635;SDS011;26642;55.766;37.828;2024-01-25T10:00:12;8.02;;;5.55;;
40635;SDS011;26642;55.766;37.828;2024-01-25T10:02:39;9.05;;;5.43;;
40635;SDS011;26642;55.766;37.828;2024-01-25T10:05:05;8.93;;;5.72;;
40635;SDS011;26642;55.766;37.828;2024-01-25T10:07:35;8.68;;;5.68;;
40635;SDS011;26642;55.766;37.828;2024-01-25T10:10:05;7.03;;;5.18;;
40635;SDS011;26642;55.766;37.828;2024-01-25T10:12:32;8.05;;;5.25;;
40635;SDS011;26642;55.766;37.828;2024-01-25T10:14:58;5.82;;;4.70;;
40635;SDS011;26642;55.766;37.828;2024-01-25T10:17:24;9.38;;;6.10;;
40635;SDS011;26642;55.766;37.828;2024-01-25T10:19:51;8.43;;;5.70;;
40635;SDS011;26642;55.766;37.828;2024-01-25T10:22:18;6.97;;;5.10;;
40635;SDS011;26642;55.766;37.828;2024-01-25T10:24:44;7.20;;;5.57;;
40635;SDS011;26642;55.766;37.828;2024-01-25T10:27:10;7.43;;;5.20;;
40635;SDS011;26642;55.766;37.828;2024-01-25T10:29:37;7.63;;;5.75;;
40635;SDS011;26642;55.766;37.828;2024-01-25T10:32:03;7.63;;;5.50;;
40635;SDS011;26642;55.766;37.828;2024-01-25T10:34:30;7.47;;;4.93;;
40635;SDS011;26642;55.766;37.828;2024-01-25T10:37:15;9.17;;;5.47;;
40635;SDS011;26642;55.766;37.828;2024-01-25T10:39:42;7.90;;;5.10;;
40635;SDS011;26642;55.766;37.828;2024-01-25T10:42:10;6.05;;;4.80;;
40635;SDS011;26642;55.766;37.828;2024-01-25T10:44:36;6.70;;;5.18;;
40635;SDS011;26642;55.766;37.828;2024-01-25T10:47:02;7.35;;;5.20;;
40635;SDS011;26642;55.766;37.828;2024-01-25T10:49:30;6.70;;;4.85;;
40635;SDS011;26642;55.766;37.828;2024-01-25T10:51:57;6.50;;;5.22;;
40635;SDS011;26642;55.766;37.828;2024-01-25T10:54:24;7.53;;;4.95;;
40635;SDS011;26642;55.766;37.828;2024-01-25T10:56:50;6.35;;;5.00;;
40635;SDS011;26642;55.766;37.828;2024-01-25T10:59:18;8.10;;;5.70;;
40635;SDS011;26642;55.766;37.828;2024-01-25T11:01:45;7.45;;;5.03;;
40635;SDS011;26642;55.766;37.828;2024-01-25T11:04:12;8.32;;;5.20;;
40635;SDS011;26642;55.766;37.828;2024-01-25T11:06:38;6.50;;;5.00;;
40635;SDS011;26642;55.766;37.828;2024-01-25T11:09:04;6.00;;;5.00;;
40635;SDS011;26642;55.766;37.828;2024-01-25T11:11:31;7.47;;;5.80;;
40635;SDS011;26642;55.766;37.828;2024-01-25T11:13:58;7.07;;;5.20;;
40635;SDS011;26642;55.766;37.828;2024-01-25T11:16:28;6.53;;;4.90;;
40635;SDS011;26642;55.766;37.828;2024-01-25T11:18:57;6.45;;;5.20;;
40635;SDS011;26642;55.766;37.828;2024-01-25T11:21:43;5.85;;;4.53;;
40635;SDS011;26642;55.766;37.828;2024-01-25T11:24:20;6.32;;;5.30;;
40635;SDS011;26642;55.766;37.828;2024-01-25T11:26:48;7.40;;;5.20;;
40635;SDS011;26642;55.766;37.828;2024-01-25T11:29:18;7.80;;;5.40;;
40635;SDS011;26642;55.766;37.828;2024-01-25T11:31:48;6.85;;;5.30;;
40635;SDS011;26642;55.766;37.828;2024-01-25T11:34:15;6.95;;;4.93;;
40635;SDS011;26642;55.766;37.828;2024-01-25T11:36:43;6.45;;;5.35;;
40635;SDS011;26642;55.766;37.828;2024-01-25T11:39:10;7.88;;;5.50;;
40635;SDS011;26642;55.766;37.828;2024-01-25T11:41:37;7.53;;;5.35;;
40635;SDS011;26642;55.766;37.828;2024-01-25T11:44:04;7.00;;;5.38;;
40635;SDS011;26642;55.766;37.828;2024-01-25T11:46:30;9.25;;;6.05;;
40635;SDS011;26642;55.766;37.828;2024-01-25T11:49:00;7.35;;;5.40;;
40635;SDS011;26642;55.766;37.828;2024-01-25T11:51:26;9.52;;;5.82;;
40635;SDS011;26642;55.766;37.828;2024-01-25T11:53:52;7.43;;;5.38;;
40635;SDS011;26642;55.766;37.828;2024-01-25T11:56:21;7.47;;;4.97;;
40635;SDS011;26642;55.766;37.828;2024-01-25T11:58:51;7.88;;;5.75;;
40635;SDS011;26642;55.766;37.828;2024-01-25T12:01:19;7.32;;;5.85;;
40635;SDS011;26642;55.766;37.828;2024-01-25T12:03:46;7.63;;;5.50;;
40635;SDS011;26642;55.766;37.828;2024-01-25T12:06:12;10.15;;;5.32;;
40635;SDS011;26642;55.766;37.828;2024-01-25T12:08:38;7.50;;;5.43;;
40635;SDS011;26642;55.766;37.828;2024-01-25T12:11:04;8.13;;;5.65;;
40635;SDS011;26642;55.766;37.828;2024-01-25T12:13:32;7.65;;;5.68;;
40635;SDS011;26642;55.766;37.828;2024-01-25T12:16:03;8.38;;;5.10;;
40635;SDS011;26642;55.766;37.828;2024-01-25T12:18:30;7.57;;;5.43;;
40635;SDS011;26642;55.766;37.828;2024-01-25T12:21:00;7.22;;;5.40;;
40635;SDS011;26642;55.766;37.828;2024-01-25T12:23:35;7.93;;;5.35;;
40635;SDS011;26642;55.766;37.828;2024-01-25T12:26:06;7.57;;;5.55;;
40635;SDS011;26642;55.766;37.828;2024-01-25T12:28:33;8.75;;;5.53;;
40635;SDS011;26642;55.766;37.828;2024-01-25T12:31:00;8.23;;;5.75;;
40635;SDS011;26642;55.766;37.828;2024-01-25T12:33:31;7.45;;;5.38;;
40635;SDS011;26642;55.766;37.828;2024-01-25T12:35:58;7.15;;;5.50;;
40635;SDS011;26642;55.766;37.828;2024-01-25T12:38:25;7.15;;;5.43;;
40635;SDS011;26642;55.766;37.828;2024-01-25T12:40:51;7.65;;;4.97;;
40635;SDS011;26642;55.766;37.828;2024-01-25T12:43:18;7.97;;;5.63;;
40635;SDS011;26642;55.766;37.828;2024-01-25T12:45:47;8.10;;;5.65;;
40635;SDS011;26642;55.766;37.828;2024-01-25T12:48:13;8.20;;;5.57;;
40635;SDS011;26642;55.766;37.828;2024-01-25T12:50:39;8.90;;;6.47;;
40635;SDS011;26642;55.766;37.828;2024-01-25T12:53:05;10.30;;;6.00;;
40635;SDS011;26642;55.766;37.828;2024-01-25T12:55:32;7.50;;;5.45;;
40635;SDS011;26642;55.766;37.828;2024-01-25T12:57:59;8.50;;;6.00;;
40635;SDS011;26642;55.766;37.828;2024-01-25T13:00:28;6.68;;;4.80;;
40635;SDS011;26642;55.766;37.828;2024-01-25T13:02:54;7.70;;;5.65;;
40635;SDS011;26642;55.766;37.828;2024-01-25T13:05:21;8.38;;;5.90;;
40635;SDS011;26642;55.766;37.828;2024-01-25T13:07:48;7.72;;;6.15;;
40635;SDS011;26642;55.766;37.828;2024-01-25T13:10:14;7.38;;;5.68;;
40635;SDS011;26642;55.766;37.828;2024-01-25T13:12:40;7.30;;;5.40;;
40635;SDS011;26642;55.766;37.828;2024-01-25T13:15:07;7.70;;;5.72;;
40635;SDS011;26642;55.766;37.828;2024-01-25T13:17:36;8.43;;;5.57;;
40635;SDS011;26642;55.766;37.828;2024-01-25T13:20:03;7.93;;;5.70;;
40635;SDS011;26642;55.766;37.828;2024-01-25T13:22:31;9.88;;;6.38;;
40635;SDS011;26642;55.766;37.828;2024-01-25T13:25:01;7.68;;;5.57;;
40635;SDS011;26642;55.766;37.828;2024-01-25T13:27:29;8.18;;;6.20;;
40635;SDS011;26642;55.766;37.828;2024-01-25T13:29:55;8.15;;;5.80;;
40635;SDS011;26642;55.766;37.828;2024-01-25T13:32:24;9.00;;;5.95;;
40635;SDS011;26642;55.766;37.828;2024-01-25T13:34:50;7.55;;;6.03;;
40635;SDS011;26642;55.766;37.828;2024-01-25T13:37:16;10.70;;;6.00;;
40635;SDS011;26642;55.766;37.828;2024-01-25T13:39:43;7.90;;;6.00;;
40635;SDS011;26642;55.766;37.828;2024-01-25T13:42:09;8.40;;;5.93;;
40635;SDS011;26642;55.766;37.828;2024-01-25T13:44:35;8.82;;;6.07;;
40635;SDS011;26642;55.766;37.828;2024-01-25T13:47:03;10.25;;;6.15;;
40635;SDS011;26642;55.766;37.828;2024-01-25T13:49:30;8.32;;;6.32;;
40635;SDS011;26642;55.766;37.828;2024-01-25T13:51:56;7.95;;;6.00;;
40635;SDS011;26642;55.766;37.828;2024-01-25T13:54:22;9.30;;;6.50;;
40635;SDS011;26642;55.766;37.828;2024-01-25T13:56:48;10.57;;;6.90;;
40635;SDS011;26642;55.766;37.828;2024-01-25T13:59:14;7.68;;;6.03;;
40635;SDS011;26642;55.766;37.828;2024-01-25T14:01:40;9.57;;;6.60;;
40635;SDS011;26642;55.766;37.828;2024-01-25T14:04:06;9.70;;;6.50;;
40635;SDS011;26642;55.766;37.828;2024-01-25T14:06:32;10.55;;;6.82;;
40635;SDS011;26642;55.766;37.828;2024-01-25T14:08:58;10.15;;;5.85;;
40635;SDS011;26642;55.766;37.828;2024-01-25T14:11:24;9.15;;;7.10;;
40635;SDS011;26642;55.766;37.828;2024-01-25T14:13:51;9.55;;;7.10;;
40635;SDS011;26642;55.766;37.828;2024-01-25T14:16:18;8.73;;;6.40;;
40635;SDS011;26642;55.766;37.828;2024-01-25T14:18:44;9.13;;;6.65;;
40635;SDS011;26642;55.766;37.828;2024-01-25T14:21:10;9.18;;;6.40;;
40635;SDS011;26642;55.766;37.828;2024-01-25T14:23:36;10.27;;;6.40;;
40635;SDS011;26642;55.766;37.828;2024-01-25T14:26:02;8.07;;;6.15;;
40635;SDS011;26642;55.766;37.828;2024-01-25T14:28:28;10.57;;;6.88;;
40635;SDS011;26642;55.766;37.828;2024-01-25T14:30:55;7.93;;;6.22;;